Time;durP1;ratioP1;P1;durP2;ratioP2;P2;SDS_P1;SDS_P2;PMS_P1;PMS_P2;Temp;Humidity;BMP_temperature;BMP_pressure;BME280_temperature;BME280_humidity;BME280_pressure;Samples;Min_cycle;Max_cycle;Signal;HPM_P1;HPM_P2
2023/01/10 00:01:06;;;;;;;1.92;0.82;;;5.60;85.80;;;;;;5092379;28;20189;-64
2023/01/10 00:03:33;;;;;;;2.20;0.90;;;5.60;85.40;;;;;;5091896;28;20181;-64
2023/01/10 00:06:01;;;;;;;1.85;0.90;;;5.60;85.50;;;;;;5091909;28;20216;-63
2023/01/10 00:08:31;;;;;;;2.17;1.10;;;5.60;85.30;;;;;;5091897;28;20232;-64
2023/01/10 00:13:21;;;;;;;2.53;0.82;;;5.60;85.20;;;;;;5092322;28;20185;-64
2023/01/10 00:13:44;;;;;;;3.40;1.30;;;5.50;84.80;;;;;;5091786;28;20691;-63
2023/01/10 00:16:11;;;;;;;3.55;1.10;;;5.50;85.20;;;;;;5091460;28;20236;-64
2023/01/10 00:18:38;;;;;;;2.20;1.02;;;5.50;85.00;;;;;;5091640;28;20221;-64
2023/01/10 00:21:08;;;;;;;2.40;1.15;;;5.50;85.20;;;;;;5092179;28;20199;-63
2023/01/10 00:23:38;;;;;;;2.55;0.85;;;5.50;85.40;;;;;;5092120;28;20220;-64
2023/01/10 00:26:05;;;;;;;2.88;0.90;;;5.50;85.50;;;;;;5091329;28;20216;-63
2023/01/10 00:28:33;;;;;;;2.30;0.80;;;5.50;85.60;;;;;;5091688;28;20239;-64
2023/01/10 00:31:05;;;;;;;1.90;0.80;;;5.50;85.50;;;;;;5091192;28;20194;-63
2023/01/10 00:33:33;;;;;;;3.47;0.90;;;5.50;85.60;;;;;;5091893;28;20185;-64
2023/01/10 00:36:02;;;;;;;5.55;1.15;;;5.40;85.70;;;;;;5091379;28;20664;-64
2023/01/10 00:38:30;;;;;;;2.95;0.88;;;5.40;85.60;;;;;;5091711;28;20215;-65
2023/01/10 00:40:58;;;;;;;4.75;0.90;;;5.40;85.50;;;;;;5092157;28;20233;-64
2023/01/10 00:46:11;;;;;;;1.80;0.70;;;5.40;85.60;;;;;;5092693;28;20227;-63
2023/01/10 00:48:39;;;;;;;1.95;0.82;;;5.40;85.50;;;;;;5095104;28;20276;-64
2023/01/10 00:51:07;;;;;;;2.55;0.90;;;5.30;85.30;;;;;;5095532;28;20280;-64
2023/01/10 00:53:34;;;;;;;1.90;0.65;;;5.20;85.50;;;;;;5095364;28;20319;-64
2023/01/10 00:56:03;;;;;;;2.00;0.70;;;5.20;85.40;;;;;;5095377;28;20200;-65
2023/01/10 00:58:31;;;;;;;2.38;1.10;;;5.10;85.80;;;;;;5095137;28;20276;-64
2023/01/10 01:00:59;;;;;;;1.70;0.70;;;5.10;86.00;;;;;;5095619;28;20197;-63
2023/01/10 01:03:27;;;;;;;1.83;0.70;;;5.00;86.20;;;;;;5095230;28;20193;-63
2023/01/10 01:05:54;;;;;;;1.60;0.70;;;5.10;86.60;;;;;;5095224;28;20217;-63
2023/01/10 01:08:21;;;;;;;2.08;0.90;;;5.00;86.90;;;;;;5095042;28;20216;-63
2023/01/10 01:10:48;;;;;;;2.35;0.80;;;5.00;87.10;;;;;;5094939;28;20207;-63
2023/01/10 01:13:18;;;;;;;2.47;0.77;;;5.10;87.10;;;;;;5094795;28;20636;-64
2023/01/10 01:15:46;;;;;;;2.28;1.08;;;5.00;86.90;;;;;;5095196;28;20206;-64
2023/01/10 01:18:15;;;;;;;2.60;1.00;;;5.00;87.00;;;;;;5094337;28;20227;-64
2023/01/10 01:20:44;;;;;;;2.88;1.08;;;5.00;87.00;;;;;;5094884;28;20189;-64
2023/01/10 01:23:12;;;;;;;3.38;1.00;;;5.00;86.70;;;;;;5094497;28;20199;-63
2023/01/10 01:25:40;;;;;;;2.70;1.17;;;5.00;86.60;;;;;;5094414;28;20262;-63
2023/01/10 01:28:07;;;;;;;3.80;1.23;;;4.90;86.60;;;;;;5094979;28;20219;-65
2023/01/10 01:30:36;;;;;;;2.63;1.30;;;4.90;86.70;;;;;;5094703;28;20664;-64
2023/01/10 01:33:03;;;;;;;2.05;0.98;;;4.90;86.90;;;;;;5095088;28;20193;-65
2023/01/10 01:35:32;;;;;;;4.05;1.30;;;4.90;87.00;;;;;;5094842;28;20224;-65
2023/01/10 01:37:59;;;;;;;2.33;1.00;;;4.90;87.10;;;;;;5095037;28;20193;-63
2023/01/10 01:40:26;;;;;;;2.28;0.90;;;4.90;87.00;;;;;;5094444;28;20185;-63
2023/01/10 01:42:54;;;;;;;2.40;0.80;;;4.90;86.90;;;;;;5094915;28;20201;-64
2023/01/10 01:45:39;;;;;;;2.00;1.17;;;4.90;86.70;;;;;;5094115;28;20525;-64
2023/01/10 01:48:28;;;;;;;2.15;0.90;;;5.00;87.00;;;;;;5094893;28;20185;-64
2023/01/10 01:51:04;;;;;;;2.55;0.90;;;5.00;87.20;;;;;;5094205;28;20196;-64
2023/01/10 01:53:37;;;;;;;1.90;0.90;;;5.00;87.10;;;;;;5092592;28;20188;-63
2023/01/10 01:56:12;;;;;;;2.00;0.80;;;5.00;86.60;;;;;;5093986;28;20177;-63
2023/01/10 01:58:47;;;;;;;2.00;0.80;;;5.00;86.70;;;;;;5093064;28;20195;-64
2023/01/10 02:01:17;;;;;;;1.95;1.00;;;5.00;87.20;;;;;;5094433;28;20193;-64
2023/01/10 02:03:48;;;;;;;1.63;0.65;;;5.10;87.50;;;;;;5093940;28;20575;-64
2023/01/10 02:06:18;;;;;;;1.90;1.13;;;5.10;88.30;;;;;;5094575;28;20205;-65
2023/01/10 02:08:51;;;;;;;2.63;0.85;;;5.10;87.60;;;;;;5094207;28;20277;-64
2023/01/10 02:11:18;;;;;;;1.98;0.80;;;5.20;87.90;;;;;;5094224;28;20561;-63
2023/01/10 02:13:46;;;;;;;2.17;0.68;;;5.20;88.10;;;;;;5094031;28;20243;-64
2023/01/10 02:16:14;;;;;;;1.60;0.60;;;5.30;88.30;;;;;;5074000;28;20193;-63
2023/01/10 02:18:43;;;;;;;2.20;0.60;;;5.30;88.30;;;;;;5073588;28;20225;-64
2023/01/10 02:21:48;;;;;;;1.80;0.60;;;5.30;88.30;;;;;;5093935;28;20708;-63
2023/01/10 02:24:44;;;;;;;1.80;0.70;;;5.30;88.10;;;;;;5093017;28;20264;-63
2023/01/10 02:27:26;;;;;;;2.10;0.70;;;5.30;87.70;;;;;;5093707;28;20745;-64
2023/01/10 02:30:22;;;;;;;1.60;0.70;;;5.30;87.70;;;;;;5093831;28;20185;-63
2023/01/10 02:32:59;;;;;;;1.70;0.68;;;5.20;87.70;;;;;;5073523;28;20194;-64
2023/01/10 02:35:46;;;;;;;1.58;0.68;;;5.30;87.30;;;;;;5086597;28;20215;-63
2023/01/10 02:38:23;;;;;;;1.80;0.80;;;5.20;86.90;;;;;;5093654;28;20199;-64
2023/01/10 02:40:57;;;;;;;1.60;0.60;;;5.10;87.20;;;;;;5093369;28;20276;-64
2023/01/10 02:43:31;;;;;;;1.65;0.70;;;5.10;87.30;;;;;;5093663;28;20196;-63
2023/01/10 02:46:03;;;;;;;1.50;0.60;;;5.10;87.60;;;;;;5093163;28;20297;-64
2023/01/10 02:48:34;;;;;;;2.55;1.10;;;5.10;87.50;;;;;;5093817;28;20504;-64
2023/01/10 02:51:08;;;;;;;1.73;0.80;;;5.10;88.00;;;;;;5093195;28;20193;-63
2023/01/10 02:53:39;;;;;;;1.83;0.90;;;5.10;88.30;;;;;;5093532;28;20272;-64
2023/01/10 02:56:38;;;;;;;1.92;0.77;;;5.10;88.40;;;;;;5089547;28;20279;-64
2023/01/10 02:59:42;;;;;;;1.70;0.80;;;5.10;88.80;;;;;;5093018;28;20219;-64
2023/01/10 03:02:23;;;;;;;2.20;1.10;;;5.10;88.90;;;;;;5093515;28;20193;-63
2023/01/10 03:05:05;;;;;;;1.90;0.90;;;5.10;88.90;;;;;;5092933;28;20263;-64
2023/01/10 03:07:38;;;;;;;2.20;0.90;;;5.10;89.10;;;;;;5093262;28;20208;-64
2023/01/10 03:10:10;;;;;;;1.80;0.80;;;5.20;89.30;;;;;;5092627;28;20601;-63
2023/01/10 03:12:44;;;;;;;2.00;0.93;;;5.20;89.00;;;;;;5092712;28;20197;-64
2023/01/10 03:15:15;;;;;;;3.20;1.00;;;5.30;89.10;;;;;;5092808;28;20234;-63
2023/01/10 03:17:46;;;;;;;1.98;0.80;;;5.30;88.90;;;;;;5092917;28;20266;-63
2023/01/10 03:20:15;;;;;;;2.70;0.80;;;5.40;88.80;;;;;;5092853;28;20672;-63
2023/01/10 03:22:44;;;;;;;1.70;0.80;;;5.40;89.30;;;;;;5093059;28;20602;-63
2023/01/10 03:25:16;;;;;;;2.55;1.05;;;5.50;88.20;;;;;;5092346;28;20238;-64
2023/01/10 03:27:52;;;;;;;2.00;0.85;;;5.50;88.20;;;;;;5092865;28;20588;-63
2023/01/10 03:30:28;;;;;;;1.70;0.80;;;5.60;88.20;;;;;;5092552;28;20189;-63
2023/01/10 03:33:00;;;;;;;1.90;0.90;;;5.60;88.10;;;;;;5093009;28;20189;-63
2023/01/10 03:35:40;;;;;;;1.75;0.80;;;5.60;87.90;;;;;;5092318;28;20192;-64
2023/01/10 03:38:16;;;;;;;1.80;1.00;;;5.70;87.80;;;;;;5092748;28;20228;-63
2023/01/10 03:40:50;;;;;;;2.05;0.93;;;5.60;87.80;;;;;;5092080;28;20234;-63
2023/01/10 03:46:10;;;;;;;2.45;1.10;;;5.70;87.60;;;;;;5092112;28;20219;-64
2023/01/10 03:48:41;;;;;;;2.08;0.82;;;5.80;87.70;;;;;;5092787;28;20212;-63
2023/01/10 03:51:14;;;;;;;2.00;0.90;;;5.80;87.50;;;;;;5092333;28;20519;-63
2023/01/10 03:53:41;;;;;;;2.00;1.00;;;5.80;87.50;;;;;;5090470;28;20268;-63
2023/01/10 03:56:12;;;;;;;1.70;0.82;;;5.80;87.30;;;;;;5092136;28;20197;-63
2023/01/10 03:58:40;;;;;;;1.95;1.23;;;5.90;87.20;;;;;;5092489;28;20256;-63
2023/01/10 04:01:07;;;;;;;1.80;1.00;;;5.90;87.00;;;;;;5092098;28;20189;-63
2023/01/10 04:03:34;;;;;;;2.08;1.00;;;5.90;87.20;;;;;;5092580;28;20193;-63
2023/01/10 04:06:03;;;;;;;2.38;1.42;;;5.90;87.20;;;;;;5091836;28;20213;-64
2023/01/10 04:08:31;;;;;;;2.03;1.30;;;5.90;87.50;;;;;;5092890;28;20643;-63
2023/01/10 04:10:59;;;;;;;3.00;1.23;;;5.90;87.80;;;;;;5092069;28;20655;-65
2023/01/10 04:13:26;;;;;;;2.80;1.10;;;5.90;88.00;;;;;;5092474;28;20280;-66
2023/01/10 04:15:53;;;;;;;3.10;1.40;;;5.90;88.30;;;;;;5091381;28;20636;-64
2023/01/10 04:18:20;;;;;;;2.20;1.40;;;5.90;88.60;;;;;;5092282;28;20263;-63
2023/01/10 04:20:47;;;;;;;2.35;1.42;;;5.80;88.90;;;;;;5092105;28;20269;-64
2023/01/10 04:23:15;;;;;;;1.88;1.20;;;5.90;89.30;;;;;;5096545;28;20641;-64
2023/01/10 04:25:48;;;;;;;1.92;1.27;;;5.90;89.40;;;;;;5095867;28;20209;-64
2023/01/10 04:28:16;;;;;;;2.05;1.35;;;5.90;89.40;;;;;;5096253;28;20183;-64
2023/01/10 04:30:43;;;;;;;1.90;1.13;;;5.90;89.70;;;;;;5095941;28;20647;-64
2023/01/10 04:33:11;;;;;;;2.60;1.60;;;5.90;89.80;;;;;;5096457;28;20196;-64
2023/01/10 04:35:38;;;;;;;2.30;1.58;;;5.90;89.60;;;;;;5095807;28;20276;-64
2023/01/10 04:38:06;;;;;;;1.98;1.10;;;5.90;89.70;;;;;;5095738;28;20246;-63
2023/01/10 04:40:33;;;;;;;2.63;1.63;;;5.90;89.60;;;;;;5095590;28;20268;-65
2023/01/10 04:43:02;;;;;;;2.95;1.30;;;5.90;89.80;;;;;;5096129;28;20665;-63
2023/01/10 04:45:29;;;;;;;5.50;1.10;;;5.90;89.80;;;;;;5095668;28;20664;-64
2023/01/10 04:47:58;;;;;;;3.38;1.27;;;5.90;89.80;;;;;;5095994;28;20624;-64
2023/01/10 04:50:25;;;;;;;2.83;1.20;;;5.90;90.00;;;;;;5095594;28;20190;-64
2023/01/10 04:52:53;;;;;;;2.30;1.38;;;5.90;90.00;;;;;;5095759;28;20663;-63
2023/01/10 04:55:21;;;;;;;2.60;1.15;;;5.90;90.10;;;;;;5095259;28;20645;-63
2023/01/10 04:57:48;;;;;;;2.15;1.00;;;5.80;90.20;;;;;;5095799;28;20189;-64
2023/01/10 05:00:17;;;;;;;1.92;1.10;;;5.80;90.10;;;;;;5095452;28;20604;-64
2023/01/10 05:02:45;;;;;;;1.90;1.10;;;5.80;90.40;;;;;;5096261;28;20194;-64
2023/01/10 05:05:13;;;;;;;2.50;1.45;;;5.80;90.00;;;;;;5095089;28;20189;-64
2023/01/10 05:07:41;;;;;;;1.95;1.00;;;5.70;90.10;;;;;;5095596;28;20575;-64
2023/01/10 05:10:09;;;;;;;2.50;1.13;;;5.70;90.10;;;;;;5095135;28;20318;-64
2023/01/10 05:12:36;;;;;;;2.20;1.08;;;5.60;90.00;;;;;;5095733;28;20195;-64
2023/01/10 05:15:04;;;;;;;2.15;1.33;;;5.60;89.80;;;;;;5095148;28;20217;-64
2023/01/10 05:17:33;;;;;;;2.00;1.10;;;5.60;90.00;;;;;;5095669;28;20193;-65
2023/01/10 05:20:01;;;;;;;3.55;1.20;;;5.60;90.10;;;;;;5095017;28;20204;-64
2023/01/10 05:22:29;;;;;;;1.77;0.95;;;5.50;90.10;;;;;;5095247;28;20291;-64
2023/01/10 05:24:56;;;;;;;1.92;1.10;;;5.50;90.20;;;;;;5094794;28;20189;-64
2023/01/10 05:27:24;;;;;;;2.63;1.30;;;5.40;90.30;;;;;;5095116;28;20655;-65
2023/01/10 05:29:51;;;;;;;1.80;1.00;;;5.40;90.40;;;;;;5094829;28;20193;-64
2023/01/10 05:32:18;;;;;;;1.85;1.00;;;5.40;90.50;;;;;;5094347;28;20835;-65
2023/01/10 05:34:47;;;;;;;3.88;0.90;;;5.50;90.50;;;;;;5094500;28;20235;-65
2023/01/10 05:37:14;;;;;;;2.40;1.05;;;5.50;90.60;;;;;;5095256;28;20193;-65
2023/01/10 05:39:42;;;;;;;1.90;0.90;;;5.50;90.80;;;;;;5094752;28;20200;-66
2023/01/10 05:42:09;;;;;;;2.00;1.00;;;5.50;90.80;;;;;;5075563;28;20186;-65
2023/01/10 05:44:36;;;;;;;1.80;1.00;;;5.50;90.80;;;;;;5094981;28;20198;-64
2023/01/10 05:47:04;;;;;;;2.00;0.95;;;5.50;90.80;;;;;;5094140;28;20217;-65
2023/01/10 05:49:31;;;;;;;1.85;0.90;;;5.50;90.90;;;;;;5094724;28;20189;-65
2023/01/10 05:52:00;;;;;;;1.80;0.80;;;5.50;90.90;;;;;;5095035;28;20197;-64
2023/01/10 05:54:28;;;;;;;1.90;0.90;;;5.50;91.30;;;;;;5094526;28;20546;-64
2023/01/10 05:56:56;;;;;;;1.95;0.98;;;5.60;91.00;;;;;;5093506;28;20274;-65
2023/01/10 05:59:25;;;;;;;1.70;0.90;;;5.60;91.00;;;;;;5093491;28;20693;-65
2023/01/10 06:01:57;;;;;;;1.80;0.93;;;5.60;90.90;;;;;;5094717;28;20196;-63
2023/01/10 06:04:25;;;;;;;1.60;0.80;;;5.60;91.00;;;;;;5093655;28;20605;-64
2023/01/10 06:06:52;;;;;;;1.83;0.90;;;5.60;90.90;;;;;;5094133;28;20217;-64
2023/01/10 06:09:23;;;;;;;3.08;0.90;;;5.60;90.90;;;;;;5093910;28;20200;-64
2023/01/10 06:11:50;;;;;;;1.83;0.85;;;5.60;91.00;;;;;;5093799;28;20275;-64
2023/01/10 06:14:18;;;;;;;1.60;0.80;;;5.60;90.90;;;;;;5094160;28;20264;-64
2023/01/10 06:16:45;;;;;;;1.60;0.60;;;5.60;90.90;;;;;;5094489;28;20189;-64
2023/01/10 06:19:12;;;;;;;1.73;0.80;;;5.60;90.90;;;;;;5093649;28;20274;-64
2023/01/10 06:21:39;;;;;;;1.70;0.93;;;5.60;91.00;;;;;;5094080;28;20656;-64
2023/01/10 06:24:10;;;;;;;1.75;0.70;;;5.60;91.00;;;;;;5094347;28;20188;-64
2023/01/10 06:26:39;;;;;;;2.70;1.30;;;5.60;91.30;;;;;;5093983;28;20547;-64
2023/01/10 06:29:09;;;;;;;3.70;1.60;;;5.60;91.30;;;;;;5082807;28;20193;-67
2023/01/10 06:31:36;;;;;;;2.10;1.10;;;5.60;91.10;;;;;;5087754;28;20202;-64
2023/01/10 06:34:05;;;;;;;4.63;0.80;;;5.60;91.20;;;;;;5091862;28;20913;-64
2023/01/10 06:36:32;;;;;;;1.75;0.80;;;5.50;91.00;;;;;;5091503;28;20181;-64
2023/01/10 06:39:00;;;;;;;1.77;0.70;;;5.60;91.10;;;;;;5092118;28;20237;-65
2023/01/10 06:41:28;;;;;;;2.03;1.00;;;5.60;91.00;;;;;;5092079;28;20197;-64
2023/01/10 06:43:56;;;;;;;1.70;0.80;;;5.50;90.90;;;;;;5090554;28;20611;-64
2023/01/10 06:46:24;;;;;;;1.85;0.85;;;5.50;91.10;;;;;;5091609;28;20225;-65
2023/01/10 06:48:53;;;;;;;1.70;0.80;;;5.50;91.20;;;;;;5087918;28;20216;-64
2023/01/10 06:51:20;;;;;;;1.70;0.80;;;5.50;91.20;;;;;;5092181;28;20387;-65
2023/01/10 06:53:54;;;;;;;1.60;0.63;;;5.40;91.20;;;;;;5089068;28;20276;-71
2023/01/10 06:56:21;;;;;;;1.98;0.95;;;5.40;91.10;;;;;;5088312;28;20609;-64
2023/01/10 06:58:49;;;;;;;2.22;0.70;;;5.40;91.00;;;;;;5091434;28;20224;-64
2023/01/10 07:01:19;;;;;;;2.15;0.90;;;5.40;91.20;;;;;;5091674;28;20247;-64
2023/01/10 07:03:47;;;;;;;2.45;0.77;;;5.40;91.10;;;;;;5090917;28;20550;-64
2023/01/10 07:06:14;;;;;;;2.55;0.88;;;5.50;91.10;;;;;;5090147;28;20189;-64
2023/01/10 07:08:43;;;;;;;1.77;1.00;;;5.40;91.20;;;;;;5091581;28;20308;-64
2023/01/10 07:11:12;;;;;;;2.10;1.20;;;5.40;91.40;;;;;;5090804;28;20280;-67
2023/01/10 07:13:39;;;;;;;3.00;1.65;;;5.40;91.40;;;;;;5087986;28;20185;-64
2023/01/10 07:16:09;;;;;;;3.00;1.98;;;5.40;91.50;;;;;;5091181;28;20237;-64
2023/01/10 07:18:39;;;;;;;3.28;1.40;;;5.40;91.70;;;;;;5091222;28;20218;-64
2023/01/10 07:21:07;;;;;;;2.53;1.23;;;5.40;91.50;;;;;;5090836;28;20636;-67
2023/01/10 07:23:37;;;;;;;1.95;1.20;;;5.40;91.60;;;;;;5090984;28;20202;-64
2023/01/10 07:26:05;;;;;;;2.05;1.15;;;5.40;91.60;;;;;;5091420;28;20566;-64
2023/01/10 07:28:34;;;;;;;2.28;0.90;;;5.40;91.60;;;;;;5090565;28;20266;-64
2023/01/10 07:31:06;;;;;;;2.00;1.20;;;5.40;91.50;;;;;;5091303;28;20191;-64
2023/01/10 07:33:33;;;;;;;2.10;1.00;;;5.40;91.50;;;;;;5091471;28;20217;-64
2023/01/10 07:36:02;;;;;;;2.72;1.17;;;5.40;91.40;;;;;;5092421;28;20201;-65
2023/01/10 07:38:30;;;;;;;3.40;1.40;;;5.40;91.50;;;;;;5093585;28;20197;-64
2023/01/10 07:40:57;;;;;;;2.22;0.90;;;5.40;91.40;;;;;;5092722;28;20302;-64
2023/01/10 07:43:24;;;;;;;2.38;1.30;;;5.40;91.60;;;;;;5093477;28;20279;-64
2023/01/10 07:45:51;;;;;;;1.92;1.10;;;5.40;91.50;;;;;;5093501;28;20277;-64
2023/01/10 07:48:18;;;;;;;2.78;1.08;;;5.40;91.50;;;;;;5093038;28;20262;-64
2023/01/10 07:50:45;;;;;;;2.10;1.30;;;5.40;91.40;;;;;;5092930;28;20228;-64
2023/01/10 07:53:13;;;;;;;2.90;1.38;;;5.40;91.50;;;;;;5093439;28;20186;-65
2023/01/10 07:55:40;;;;;;;2.05;1.10;;;5.40;91.40;;;;;;5092365;28;20220;-64
2023/01/10 07:58:08;;;;;;;2.70;1.30;;;5.40;91.50;;;;;;5093159;28;20213;-64
2023/01/10 08:00:35;;;;;;;3.35;1.08;;;5.40;91.30;;;;;;5092893;28;20235;-64
2023/01/10 08:03:02;;;;;;;1.80;0.80;;;5.40;91.60;;;;;;5090349;28;20189;-63
2023/01/10 08:05:29;;;;;;;2.60;1.27;;;5.40;91.30;;;;;;5092710;28;20220;-65
2023/01/10 08:07:58;;;;;;;2.53;1.23;;;5.40;91.40;;;;;;5092564;28;20270;-64
2023/01/10 08:10:27;;;;;;;2.30;1.10;;;5.40;91.50;;;;;;5093131;28;20193;-64
2023/01/10 08:12:54;;;;;;;2.38;1.15;;;5.50;91.50;;;;;;5093121;28;20227;-64
2023/01/10 08:15:21;;;;;;;2.45;1.30;;;5.50;91.40;;;;;;5093187;28;20224;-64
2023/01/10 08:17:48;;;;;;;2.13;1.00;;;5.50;91.40;;;;;;5092717;28;20225;-64
2023/01/10 08:20:15;;;;;;;3.33;0.98;;;5.50;91.20;;;;;;5093091;28;20284;-64
2023/01/10 08:22:42;;;;;;;3.25;1.50;;;5.50;91.10;;;;;;5093110;28;20237;-64
2023/01/10 08:25:10;;;;;;;3.75;1.20;;;5.50;91.10;;;;;;5092996;28;20719;-64
2023/01/10 08:27:38;;;;;;;2.47;1.35;;;5.60;91.10;;;;;;5092861;28;20252;-64
2023/01/10 08:30:06;;;;;;;2.13;1.00;;;5.60;91.10;;;;;;5092641;28;20229;-64
2023/01/10 08:32:33;;;;;;;2.60;1.10;;;5.70;91.10;;;;;;5092824;28;20218;-65
2023/01/10 08:35:00;;;;;;;2.55;1.02;;;5.70;91.00;;;;;;5092724;28;20236;-64
2023/01/10 08:37:27;;;;;;;4.38;1.55;;;5.70;90.90;;;;;;5093166;28;20275;-64
2023/01/10 08:39:54;;;;;;;2.83;1.33;;;5.80;90.90;;;;;;5093100;28;20193;-64
2023/01/10 08:42:21;;;;;;;2.70;1.17;;;5.90;90.80;;;;;;5092923;28;20612;-64
2023/01/10 08:44:49;;;;;;;2.55;1.10;;;5.90;90.70;;;;;;5092680;28;20189;-64
2023/01/10 08:47:16;;;;;;;2.30;1.25;;;5.90;90.40;;;;;;5091682;28;20591;-64
2023/01/10 08:49:43;;;;;;;4.40;2.70;;;6.00;90.70;;;;;;5092640;28;20251;-64
2023/01/10 08:52:10;;;;;;;5.60;1.83;;;6.00;90.30;;;;;;5092873;28;20275;-64
2023/01/10 08:54:37;;;;;;;4.40;1.77;;;6.00;90.20;;;;;;5092704;28;20222;-64
2023/01/10 08:57:04;;;;;;;2.95;1.55;;;6.10;90.10;;;;;;5092734;28;20223;-64
2023/01/10 08:59:31;;;;;;;3.85;1.42;;;6.10;90.00;;;;;;5092721;28;20199;-66
2023/01/10 09:01:59;;;;;;;3.83;1.70;;;6.10;89.70;;;;;;5092514;28;20601;-64
2023/01/10 09:04:28;;;;;;;2.58;1.70;;;6.10;89.20;;;;;;5092477;28;20716;-65
2023/01/10 09:06:55;;;;;;;2.50;1.52;;;6.20;89.40;;;;;;5093045;28;20485;-64
2023/01/10 09:09:22;;;;;;;2.72;1.65;;;6.20;89.10;;;;;;5095721;28;20308;-64
2023/01/10 09:11:49;;;;;;;5.90;3.50;;;6.30;89.10;;;;;;5096444;28;20229;-64
2023/01/10 09:14:16;;;;;;;3.53;1.73;;;6.30;88.80;;;;;;5095797;28;20194;-64
2023/01/10 09:16:43;;;;;;;2.70;1.55;;;6.40;89.60;;;;;;5096190;28;20282;-65
2023/01/10 09:19:12;;;;;;;6.20;2.38;;;6.50;88.30;;;;;;5095715;28;20317;-65
2023/01/10 09:21:39;;;;;;;5.90;1.80;;;6.60;88.30;;;;;;5095507;28;20191;-65
2023/01/10 09:24:07;;;;;;;7.38;2.10;;;6.80;88.00;;;;;;5096056;28;20237;-64
2023/01/10 09:26:34;;;;;;;3.65;1.55;;;7.00;87.80;;;;;;5095785;28;20191;-67
2023/01/10 09:29:01;;;;;;;4.85;2.00;;;7.00;85.60;;;;;;5095869;28;20261;-66
2023/01/10 09:31:27;;;;;;;3.22;1.33;;;7.10;84.70;;;;;;5095621;28;20196;-65
2023/01/10 09:33:54;;;;;;;2.67;1.40;;;7.10;83.60;;;;;;5095607;28;20287;-65
2023/01/10 09:36:23;;;;;;;4.10;1.63;;;7.00;82.80;;;;;;5095990;28;20538;-66
2023/01/10 09:38:50;;;;;;;3.15;1.30;;;7.00;83.00;;;;;;5095796;28;20198;-66
2023/01/10 09:41:51;;;;;;;5.47;1.50;;;7.00;82.80;;;;;;5095754;28;20218;-64
2023/01/10 09:44:24;;;;;;;2.53;1.25;;;7.00;83.60;;;;;;5095702;28;21459;-64
2023/01/10 09:47:00;;;;;;;3.67;1.50;;;7.20;84.80;;;;;;5095511;28;20234;-65
2023/01/10 09:49:44;;;;;;;3.80;1.77;;;7.50;85.20;;;;;;5094942;28;20681;-64
2023/01/10 09:52:22;;;;;;;3.65;1.65;;;7.70;84.80;;;;;;5094769;28;20257;-64
2023/01/10 09:54:50;;;;;;;4.53;2.17;;;7.90;83.10;;;;;;5094777;28;20234;-64
2023/01/10 09:57:19;;;;;;;3.42;2.00;;;8.00;82.10;;;;;;5095253;28;20241;-64
2023/01/10 09:59:49;;;;;;;5.55;2.08;;;8.10;81.80;;;;;;5095150;28;20195;-64
2023/01/10 10:02:27;;;;;;;4.90;2.15;;;8.10;81.60;;;;;;5095208;28;20189;-66
2023/01/10 10:05:07;;;;;;;4.63;1.92;;;8.30;81.50;;;;;;5095341;28;20238;-64
2023/01/10 10:07:36;;;;;;;10.57;2.00;;;8.30;79.40;;;;;;5095148;28;20283;-66
2023/01/10 10:10:05;;;;;;;3.95;2.35;;;8.40;78.10;;;;;;5094913;28;20280;-65
2023/01/10 10:12:41;;;;;;;3.60;1.45;;;8.40;77.10;;;;;;5095349;28;20542;-65
2023/01/10 10:15:18;;;;;;;4.57;1.80;;;8.50;77.40;;;;;;5095175;28;20227;-65
2023/01/10 10:17:52;;;;;;;2.83;1.65;;;8.70;77.90;;;;;;5094607;28;20227;-65
2023/01/10 10:20:43;;;;;;;7.20;1.85;;;9.00;77.50;;;;;;5094262;28;20231;-64
2023/01/10 10:23:35;;;;;;;4.50;1.77;;;9.30;75.90;;;;;;5094709;28;20193;-65
2023/01/10 10:26:07;;;;;;;3.25;1.80;;;9.40;74.20;;;;;;5094865;28;20193;-65
2023/01/10 10:29:00;;;;;;;6.85;1.75;;;9.50;71.90;;;;;;5094699;28;20608;-65
2023/01/10 10:31:44;;;;;;;3.85;1.50;;;9.50;71.60;;;;;;5094791;28;20531;-65
2023/01/10 10:34:16;;;;;;;4.88;2.35;;;9.50;72.30;;;;;;5094577;28;20663;-65
2023/01/10 10:36:49;;;;;;;4.97;1.67;;;9.80;73.10;;;;;;5094638;28;20279;-65
2023/01/10 10:39:21;;;;;;;6.95;2.25;;;10.50;73.10;;;;;;5094513;28;20541;-65
2023/01/10 10:41:53;;;;;;;3.28;1.67;;;11.10;71.10;;;;;;5094399;28;20727;-65
2023/01/10 10:44:35;;;;;;;5.15;1.90;;;11.80;69.60;;;;;;5094450;28;20236;-65
2023/01/10 10:47:02;;;;;;;5.18;2.25;;;12.40;67.30;;;;;;5094176;28;20189;-65
2023/01/10 10:49:38;;;;;;;7.38;1.65;;;12.30;61.00;;;;;;5094267;28;20299;-65
2023/01/10 10:52:14;;;;;;;5.60;2.05;;;12.00;58.80;;;;;;5094229;28;20184;-65
2023/01/10 10:54:42;;;;;;;6.30;1.60;;;11.50;57.80;;;;;;5093980;28;20646;-64
2023/01/10 10:57:11;;;;;;;4.70;2.10;;;11.20;58.40;;;;;;5093861;28;20276;-65
2023/01/10 10:59:38;;;;;;;4.80;2.10;;;10.80;58.70;;;;;;5093999;28;20280;-65
2023/01/10 11:02:20;;;;;;;6.65;2.03;;;10.40;59.50;;;;;;5093864;28;20280;-65
2023/01/10 11:04:48;;;;;;;5.25;1.80;;;10.20;59.60;;;;;;5093534;28;20196;-64
2023/01/10 11:07:18;;;;;;;11.68;2.30;;;9.90;61.40;;;;;;5091911;28;20584;-65
2023/01/10 11:09:50;;;;;;;9.57;1.90;;;9.70;62.50;;;;;;5093599;28;20316;-65
2023/01/10 11:12:26;;;;;;;7.38;2.53;;;9.50;63.10;;;;;;5093801;28;20197;-64
2023/01/10 11:14:53;;;;;;;3.20;1.50;;;9.30;63.90;;;;;;5094078;28;20192;-65
2023/01/10 11:17:24;;;;;;;7.03;2.08;;;9.10;64.40;;;;;;5093559;28;20227;-65
2023/01/10 11:20:02;;;;;;;5.80;1.35;;;9.00;64.70;;;;;;5092815;28;20271;-64
2023/01/10 11:22:32;;;;;;;5.63;2.15;;;8.80;64.80;;;;;;5088916;28;20566;-66
2023/01/10 11:25:03;;;;;;;5.45;1.85;;;8.80;65.70;;;;;;5093068;28;20193;-65
2023/01/10 11:27:32;;;;;;;6.55;1.50;;;8.60;65.30;;;;;;5093716;28;20635;-65
2023/01/10 11:30:02;;;;;;;4.07;1.45;;;8.40;65.60;;;;;;5092584;28;20270;-65
2023/01/10 11:32:35;;;;;;;3.75;1.45;;;8.40;66.40;;;;;;5092679;28;20185;-65
2023/01/10 11:35:06;;;;;;;3.97;2.15;;;8.40;67.80;;;;;;5092546;28;20247;-65
2023/01/10 11:37:35;;;;;;;5.40;1.80;;;8.60;68.70;;;;;;5093298;28;20238;-65
2023/01/10 11:40:25;;;;;;;2.78;1.50;;;8.90;68.50;;;;;;5092287;28;20300;-65
2023/01/10 11:42:54;;;;;;;3.50;2.03;;;9.40;69.70;;;;;;5088856;28;20219;-65
2023/01/10 11:45:28;;;;;;;2.85;1.30;;;10.30;67.10;;;;;;5093370;28;20525;-65
2023/01/10 11:47:59;;;;;;;7.03;3.00;;;11.50;66.50;;;;;;5093415;28;20192;-64
2023/01/10 11:50:29;;;;;;;5.65;1.75;;;12.10;59.20;;;;;;5092472;28;20256;-65
2023/01/10 11:52:56;;;;;;;4.22;1.95;;;12.00;57.20;;;;;;5092753;28;20189;-65
2023/01/10 11:55:26;;;;;;;8.80;2.25;;;11.60;56.10;;;;;;5093290;28;20593;-65
2023/01/10 11:58:03;;;;;;;4.38;1.50;;;11.20;55.60;;;;;;5093239;28;20221;-64
2023/01/10 12:00:34;;;;;;;9.45;2.05;;;11.00;56.30;;;;;;5093179;28;20254;-65
2023/01/10 12:03:02;;;;;;;4.05;1.60;;;10.70;55.10;;;;;;5093165;28;20232;-65
2023/01/10 12:05:29;;;;;;;3.53;1.60;;;10.50;56.00;;;;;;5093347;28;20228;-65
2023/01/10 12:07:58;;;;;;;6.75;1.50;;;10.20;56.00;;;;;;5092871;28;20192;-64
2023/01/10 12:10:28;;;;;;;5.20;1.73;;;10.00;56.30;;;;;;5092747;28;20328;-65
2023/01/10 12:12:57;;;;;;;5.10;2.10;;;9.70;58.30;;;;;;5093155;28;20189;-65
2023/01/10 12:15:27;;;;;;;4.25;1.80;;;9.40;58.90;;;;;;5093118;28;20323;-65
2023/01/10 12:17:57;;;;;;;3.78;1.98;;;9.10;59.90;;;;;;5092794;28;20225;-65
2023/01/10 12:20:28;;;;;;;4.47;1.88;;;8.90;60.20;;;;;;5093274;28;20242;-65
2023/01/10 12:22:59;;;;;;;3.72;1.80;;;8.90;62.60;;;;;;5092679;28;20625;-64
2023/01/10 12:25:34;;;;;;;3.67;1.60;;;9.00;63.70;;;;;;5093105;28;20251;-65
2023/01/10 12:28:01;;;;;;;6.57;1.70;;;9.30;62.90;;;;;;5093302;28;20231;-66
2023/01/10 12:30:32;;;;;;;10.00;1.80;;;9.60;62.20;;;;;;5092945;28;20224;-65
2023/01/10 12:33:02;;;;;;;6.15;1.60;;;10.40;60.70;;;;;;5093067;28;20196;-66
2023/01/10 12:35:40;;;;;;;4.45;1.70;;;11.30;59.00;;;;;;5092919;28;20306;-66
2023/01/10 12:38:22;;;;;;;3.50;1.52;;;11.70;56.20;;;;;;5092956;28;20599;-66
2023/01/10 12:40:58;;;;;;;3.08;1.70;;;11.60;55.70;;;;;;5092622;28;20198;-65
2023/01/10 12:46:23;;;;;;;6.28;1.60;;;11.10;55.50;;;;;;5094266;28;20555;-64
2023/01/10 12:48:58;;;;;;;6.40;2.83;;;10.80;55.50;;;;;;5096702;28;20307;-65
2023/01/10 12:51:28;;;;;;;5.60;2.00;;;10.60;56.00;;;;;;5096958;28;20573;-65
2023/01/10 12:54:00;;;;;;;2.38;1.30;;;10.80;57.40;;;;;;5096651;28;20284;-65
2023/01/10 12:56:29;;;;;;;7.82;1.80;;;11.10;56.20;;;;;;5096662;28;20185;-65
2023/01/10 12:59:00;;;;;;;4.70;1.25;;;11.20;55.70;;;;;;5096752;28;20277;-64
2023/01/10 13:01:31;;;;;;;3.40;1.20;;;11.50;56.20;;;;;;5096565;28;20242;-65
2023/01/10 13:04:03;;;;;;;8.07;1.73;;;11.60;54.90;;;;;;5096386;28;20231;-65
2023/01/10 13:06:33;;;;;;;4.32;2.42;;;11.40;54.40;;;;;;5096450;28;20279;-65
2023/01/10 13:09:06;;;;;;;4.65;1.60;;;11.20;53.60;;;;;;5096446;28;20259;-65
2023/01/10 13:11:41;;;;;;;4.07;1.40;;;10.80;53.10;;;;;;5096449;28;20185;-65
2023/01/10 13:14:13;;;;;;;2.75;1.27;;;10.50;52.60;;;;;;5096331;28;20279;-65
2023/01/10 13:16:47;;;;;;;5.72;1.50;;;10.40;53.90;;;;;;5096121;28;20224;-65
2023/01/10 13:19:26;;;;;;;4.10;1.30;;;10.60;54.50;;;;;;5093336;28;20705;-65
2023/01/10 13:22:18;;;;;;;4.78;1.48;;;11.10;54.50;;;;;;5095945;28;20188;-65